Share

Wahpeton, ND (58076)

Stern (KBWP) Elev 968 ft | 46.24 °N, 96.61 °W | Change Station

Current weather conditions updated 23 minutes ago

Clear
Clear
73 °F
Feels Like 73 °F
N
8
Wind Variable Wind from SSW
Sunrise 6:30 AM
Sunset 8:20 PM
Moon Waning Gibbous

Today is forecast to be Warmer than yesterday.

Pressure 29.95 in
Visibility 10.0 miles
Clouds Clear
Dew Point 27 °F
Humidity 18%
Rainfall 0.00 in
Snow Depth Not available.
UV 7 out of 16
Pollen 10.70 out of 12
Air Quality Not available.
Flu Activity Sporadic
METAR KBWP 202015Z AUTO 20007KT 10SM CLR 23/M03 A2995 RMK AO1

More Conditions Fewer Conditions

Pressure 29.95 in
Visibility 10.0 miles
Clouds Clear
Dew Point 27 °F
Humidity 18%
Rainfall 0.00 in
Snow Depth Not available.
UV 7 out of 16
Pollen 10.70 out of 12
Air Quality Not available.
Flu Activity Sporadic
METAR KBWP 202015Z AUTO 20007KT 10SM CLR 23/M03 A2995 RMK AO1

More Conditions Fewer Conditions

10-Day Weather Forecast

Almanac

Astronomy

Apr. 20, 2014 Rise Set
Actual Time 6:30 AM CDT 8:20 PM CDT
Civil Twilight 5:58 AM CDT 8:52 PM CDT
Nautical Twilight 5:19 AM CDT 9:32 PM CDT
Astronomical Twilight 4:37 AM CDT 10:15 PM CDT
Moon 1:08 AM CDT 10:45 AM CDT
Length of Visible Light 14h 53m
Length of Day
13h 49m
Tomorrow will be 3m 4s longer.
Waning Gibbous, 67% of the Moon is Illuminated
Today
Waning Gibbous
Apr 22
Last Quarter
Apr 29
New
May 6
First Quarter
May 14
Full

Today's Extremes

State Highs State Lows

Community

  • Morning Sun
    Morning Sun
  • after rain
    after rain
  • Columbine
    Columbine
  • Easter Sunrise
    Easter Sunrise
  • Easter Eve - The Promise - Lake Palestine, TX
    Easter Eve - The Promise - Lake Palestine, TX

WunderPhotos

Upload Photos

1,703,342 photos uploaded!

WunderBlogs® & News

Nearby

Snow Depth

Station Depth Elevation
No new snow has been reported.

Coastal Water Temperatures

Place Temperature
No Stations Reporting

Earthquake Activity

City Distance Mag. Time & Date
No recent earthquake activity has been reported nearby.
Minimum magnitude displayed is 2.5.

Nearby Weather Stations

Station Location Temp. Heat Index Dew Point Humidity Wind Precip. Elev Updated Type
NDDOT Wahpeton ND 13 MP 384.5, Mooreton, ND 72 °F 76 °F 39 °F 30% South  at  11 mph 0.00 in / hr 962 ft 2:11 PM CDT MADIS
Open Plains ND, Wyndmere, ND 76.1 °F 77 °F 41 °F 28% South  at  6.8 mph - / hr 1056 ft 3:24 PM CDT Normal

Show More Stations Show Fewer Stations

What do you think?

We're not finished. Please let us know what you like, what you don't like, and what you are still missing.